Time;durP1;ratioP1;P1;durP2;ratioP2;P2;SDS_P1;SDS_P2;PMS_P1;PMS_P2;Temp;Humidity;BMP_temperature;BMP_pressure;BME280_temperature;BME280_humidity;BME280_pressure;Samples;Min_cycle;Max_cycle;Signal;HPM_P1;HPM_P2
2021/11/12 00:14:46;;;;;;;8.63;5.78;;;;;;;19.38;43.41;102168.25;5096436;28;20121;-64
2021/11/12 00:17:13;;;;;;;9.00;6.30;;;;;;;19.37;43.26;102163.06;5096463;28;20035;-65
2021/11/12 00:19:38;;;;;;;8.80;6.55;;;;;;;19.32;43.27;102158.09;5095783;28;20051;-65
2021/11/12 00:22:04;;;;;;;10.10;6.22;;;;;;;19.31;43.37;102159.06;5096157;28;20036;-65
2021/11/12 00:24:30;;;;;;;8.52;5.53;;;;;;;19.29;43.21;102153.00;5095621;28;20028;-66
2021/11/12 00:26:56;;;;;;;9.88;6.50;;;;;;;19.28;43.27;102153.09;5096255;28;20035;-65
2021/11/12 00:29:22;;;;;;;9.65;6.35;;;;;;;19.26;43.25;102142.63;5096610;28;20020;-65
2021/11/12 00:32:12;;;;;;;9.45;6.57;;;;;;;19.24;43.50;102136.59;5095615;28;20135;-65
2021/11/12 00:34:57;;;;;;;11.05;6.20;;;;;;;19.22;43.24;102130.59;5096512;28;20027;-65
2021/11/12 00:43:12;;;;;;;9.65;6.40;;;;;;;19.16;43.09;102131.81;5078447;28;20075;-65
2021/11/12 00:45:36;;;;;;;9.63;6.88;;;;;;;19.14;43.34;102125.78;5095615;28;20479;-65
2021/11/12 00:48:15;;;;;;;8.63;6.40;;;;;;;19.12;43.30;102122.41;5095637;28;20093;-65
2021/11/12 00:50:58;;;;;;;9.00;6.57;;;;;;;19.11;43.35;102119.88;5096206;28;20089;-64
2021/11/12 00:55:52;;;;;;;8.98;6.65;;;;;;;19.09;42.99;102121.75;5095812;28;20032;-66
2021/11/12 00:58:17;;;;;;;9.52;6.63;;;;;;;19.05;43.17;102117.63;5095361;28;20425;-66
2021/11/12 01:00:45;;;;;;;11.07;7.15;;;;;;;19.05;43.41;102114.97;5094884;28;20016;-66
2021/11/12 01:03:10;;;;;;;8.98;6.72;;;;;;;19.02;42.99;102103.63;5095469;28;20032;-65
2021/11/12 01:05:36;;;;;;;9.60;6.72;;;;;;;18.99;43.27;102109.16;5095699;28;20024;-65
2021/11/12 01:08:02;;;;;;;8.48;6.28;;;;;;;18.99;43.18;102108.28;5094404;28;20024;-65
2021/11/12 01:10:29;;;;;;;10.68;7.20;;;;;;;18.98;43.15;102112.72;5095190;28;20392;-65
2021/11/12 01:12:57;;;;;;;10.52;6.80;;;;;;;18.97;42.92;102099.63;5095273;28;20032;-65
2021/11/12 01:15:22;;;;;;;11.30;6.55;;;;;;;18.94;43.30;102098.03;5094766;28;20032;-65
2021/11/12 01:17:49;;;;;;;10.60;7.00;;;;;;;18.95;42.97;102104.16;5095447;28;20070;-65
2021/11/12 01:20:16;;;;;;;12.57;7.15;;;;;;;18.93;42.98;102101.63;5095179;28;20040;-65
2021/11/12 01:22:42;;;;;;;10.75;7.28;;;;;;;18.92;42.93;102102.56;5094238;28;20107;-65
2021/11/12 01:25:10;;;;;;;9.77;7.30;;;;;;;18.90;42.98;102101.81;5094944;28;20095;-65
2021/11/12 01:27:38;;;;;;;10.75;6.93;;;;;;;18.89;42.99;102101.91;5095037;28;20035;-65
2021/11/12 01:30:05;;;;;;;9.15;6.60;;;;;;;18.87;42.71;102098.50;5094175;28;20016;-65
2021/11/12 01:32:31;;;;;;;11.10;6.95;;;;;;;18.84;42.88;102094.28;5095227;28;20039;-65
2021/11/12 01:35:12;;;;;;;9.95;7.13;;;;;;;18.84;43.05;102097.78;5093796;28;20046;-66
2021/11/12 01:37:39;;;;;;;11.05;7.13;;;;;;;18.82;42.50;102094.34;5094896;28;20042;-66
2021/11/12 01:40:07;;;;;;;9.63;6.82;;;;;;;18.80;42.65;102092.75;5094340;28;20020;-66
2021/11/12 01:42:59;;;;;;;10.70;6.93;;;;;;;18.80;42.88;102093.63;5094061;28;20024;-65
2021/11/12 01:45:35;;;;;;;10.07;7.18;;;;;;;18.78;42.75;102095.50;5094682;28;20081;-66
2021/11/12 01:50:49;;;;;;;10.50;7.13;;;;;;;18.75;42.86;102085.13;5094071;28;20078;-65
2021/11/12 01:53:25;;;;;;;9.20;7.13;;;;;;;18.74;42.35;102078.16;5094267;28;20055;-66
2021/11/12 01:56:07;;;;;;;10.45;7.22;;;;;;;18.73;42.39;102071.19;5094382;28;20468;-65
2021/11/12 01:58:51;;;;;;;10.15;7.05;;;;;;;18.72;42.65;102066.00;5094497;28;20024;-65
2021/11/12 02:01:19;;;;;;;10.43;7.40;;;;;;;18.69;42.46;102059.09;5094369;28;20043;-65
2021/11/12 02:03:45;;;;;;;10.15;6.53;;;;;;;18.68;42.60;102066.19;5093536;28;20038;-65
2021/11/12 02:06:13;;;;;;;10.43;7.93;;;;;;;18.67;42.39;102059.22;5093932;28;20044;-65
2021/11/12 02:08:42;;;;;;;10.57;7.28;;;;;;;18.65;42.60;102047.91;5094337;28;20443;-65
2021/11/12 02:11:07;;;;;;;9.63;7.10;;;;;;;18.64;42.28;102043.59;5093000;28;20044;-65
2021/11/12 02:13:34;;;;;;;11.00;7.10;;;;;;;18.64;42.40;102045.34;5094181;28;20024;-65
2021/11/12 02:16:05;;;;;;;10.10;7.18;;;;;;;18.62;42.20;102047.25;5093565;28;20310;-66
2021/11/12 02:18:35;;;;;;;9.80;6.95;;;;;;;18.61;42.09;102045.56;5093640;28;20131;-65
2021/11/12 02:21:48;;;;;;;10.00;6.80;;;;;;;18.61;42.27;102038.50;5093885;28;20028;-64
2021/11/12 02:23:58;;;;;;;9.63;6.70;;;;;;;18.59;42.26;102028.97;5088087;28;20047;-65
2021/11/12 02:26:27;;;;;;;10.95;6.85;;;;;;;18.58;42.02;102025.50;5093181;28;20361;-65
2021/11/12 02:28:54;;;;;;;9.35;7.10;;;;;;;18.57;42.39;102031.72;5093937;28;20039;-65
2021/11/12 02:31:25;;;;;;;10.13;7.25;;;;;;;18.55;42.34;102025.69;5092644;28;20425;-65
2021/11/12 02:33:52;;;;;;;10.48;6.88;;;;;;;18.54;42.31;102026.63;5093424;28;20130;-65
2021/11/12 02:36:18;;;;;;;9.68;7.45;;;;;;;18.53;42.33;102032.84;5093363;28;20032;-65
2021/11/12 02:38:52;;;;;;;9.60;6.93;;;;;;;18.54;42.17;102044.28;5093249;28;20028;-65
2021/11/12 02:41:18;;;;;;;10.90;7.15;;;;;;;18.51;42.19;102044.47;5093409;28;20020;-67
2021/11/12 02:43:47;;;;;;;11.82;7.18;;;;;;;18.51;42.00;102047.94;5093780;28;20025;-67
2021/11/12 02:46:15;;;;;;;10.20;7.07;;;;;;;18.49;41.95;102041.91;5092584;28;20091;-65
2021/11/12 02:48:42;;;;;;;10.48;7.47;;;;;;;18.48;41.96;102042.84;5093315;28;20039;-66
2021/11/12 02:51:11;;;;;;;11.68;7.55;;;;;;;18.47;41.98;102031.47;5093140;28;20375;-66
2021/11/12 02:53:37;;;;;;;9.35;7.30;;;;;;;18.46;41.74;102032.41;5092979;28;20032;-66
2021/11/12 02:56:07;;;;;;;10.32;6.95;;;;;;;18.46;41.86;102035.03;5093162;28;20028;-65
2021/11/12 02:58:33;;;;;;;11.25;7.30;;;;;;;18.45;41.99;102033.38;5093473;28;20035;-66
2021/11/12 03:00:59;;;;;;;11.25;7.75;;;;;;;18.44;41.79;102026.38;5092212;28;20027;-66
2021/11/12 03:03:28;;;;;;;9.73;7.20;;;;;;;18.43;41.68;102016.75;5093273;28;20032;-65
2021/11/12 03:05:54;;;;;;;10.60;7.03;;;;;;;18.42;41.92;102023.00;5093448;28;20110;-66
2021/11/12 03:08:21;;;;;;;10.45;7.45;;;;;;;18.42;41.89;102014.22;5092262;28;20107;-65
2021/11/12 03:10:49;;;;;;;9.38;6.85;;;;;;;18.41;41.68;102008.09;5093003;28;20086;-65
2021/11/12 03:13:14;;;;;;;10.48;7.65;;;;;;;18.39;41.75;102015.28;5092734;28;20400;-65
2021/11/12 03:15:39;;;;;;;12.23;7.30;;;;;;;18.36;41.57;102007.53;5092191;28;20032;-65
2021/11/12 03:18:08;;;;;;;10.07;7.28;;;;;;;18.39;41.63;102006.47;5092549;28;20491;-65
2021/11/12 03:20:34;;;;;;;11.27;7.75;;;;;;;18.37;41.79;101998.66;5091931;28;20368;-66
2021/11/12 03:23:07;;;;;;;10.77;7.25;;;;;;;18.37;42.00;102000.47;5092792;28;20036;-64
2021/11/12 03:31:01;;;;;;;11.57;7.43;;;;;;;18.34;41.82;101987.47;5092941;28;20383;-65
2021/11/12 04:30:47;;;;;;;9.32;6.25;;;;;;;18.41;41.37;101928.91;5092060;28;20551;-66
2021/11/12 04:41:35;;;;;;;10.15;6.18;;;;;;;18.41;41.12;101899.88;5091850;28;20039;-65
2021/11/12 05:43:50;;;;;;;8.30;6.15;;;;;;;18.41;40.47;101812.78;5095125;28;20115;-65
2021/11/12 05:46:19;;;;;;;9.40;6.55;;;;;;;18.42;40.16;101817.13;5094820;28;20051;-65
2021/11/12 05:56:42;;;;;;;;;;;;;;;18.43;40.10;101810.88;5099276;28;20135;-65
2021/11/12 05:59:10;;;;;;;8.93;6.05;;;;;;;18.43;40.18;101818.78;5094026;28;20387;-66
2021/11/12 06:01:36;;;;;;;9.15;6.75;;;;;;;18.42;40.24;101827.69;5091540;28;20093;-66
2021/11/12 06:04:04;;;;;;;9.00;6.03;;;;;;;18.42;40.26;101838.25;5093417;28;20095;-66
2021/11/12 06:06:29;;;;;;;9.23;6.40;;;;;;;18.41;40.20;101825.16;5094329;28;20089;-65
2021/11/12 06:08:55;;;;;;;9.23;6.10;;;;;;;18.39;39.94;101812.03;5093289;28;20500;-65
2021/11/12 06:11:23;;;;;;;8.52;6.45;;;;;;;18.41;40.28;101811.94;5092894;28;20055;-65
2021/11/12 06:13:48;;;;;;;8.63;6.20;;;;;;;18.39;40.45;101811.19;5094015;28;20087;-65
2021/11/12 06:16:14;;;;;;;8.40;6.40;;;;;;;18.41;40.87;101811.94;5093143;28;20028;-65
2021/11/12 06:18:39;;;;;;;8.88;6.07;;;;;;;18.42;41.22;101806.56;5094046;28;20024;-64
2021/11/12 06:21:04;;;;;;;9.13;6.55;;;;;;;18.42;41.65;101800.41;5093855;28;20056;-65
2021/11/12 06:23:30;;;;;;;9.77;6.13;;;;;;;18.47;41.73;101812.38;5093172;28;20127;-65
2021/11/12 06:25:55;;;;;;;9.30;6.43;;;;;;;18.50;42.08;101821.88;5094107;28;20020;-65
2021/11/12 06:28:21;;;;;;;8.50;5.65;;;;;;;18.54;42.73;101822.53;5093752;28;20367;-65
2021/11/12 06:30:48;;;;;;;7.93;5.30;;;;;;;18.55;43.13;101827.69;5093179;28;20024;-65
2021/11/12 06:33:14;;;;;;;8.23;5.88;;;;;;;18.59;43.10;101831.81;5093511;28;20055;-65
2021/11/12 06:35:39;;;;;;;7.72;5.93;;;;;;;18.60;43.17;101828.22;5093414;28;20221;-65
2021/11/12 06:38:04;;;;;;;8.55;6.18;;;;;;;18.63;42.81;101833.28;5092314;28;20032;-65
2021/11/12 06:40:30;;;;;;;8.67;5.87;;;;;;;18.67;42.99;101848.00;5093699;28;20055;-65
2021/11/12 06:51:11;;;;;;;8.32;4.95;;;;;;;18.77;42.82;101831.50;5092986;28;20128;-66
2021/11/12 06:53:36;;;;;;;8.38;5.25;;;;;;;18.79;42.85;101826.97;5092742;28;20115;-66
2021/11/12 06:56:02;;;;;;;8.35;5.38;;;;;;;18.78;42.82;101818.19;5092871;28;20380;-66
2021/11/12 06:58:29;;;;;;;7.57;5.28;;;;;;;18.82;42.59;101824.13;5092473;28;20110;-66
2021/11/12 07:00:55;;;;;;;7.60;5.38;;;;;;;18.81;42.79;101817.97;5093105;28;20020;-66
2021/11/12 07:03:23;;;;;;;8.63;5.53;;;;;;;18.83;42.42;101812.59;5093103;28;20024;-66
2021/11/12 07:05:48;;;;;;;6.50;4.68;;;;;;;18.84;42.56;101816.97;5092273;28;20040;-66
2021/11/12 07:08:14;;;;;;;7.50;4.75;;;;;;;18.87;42.91;101815.91;5092824;28;20032;-65
2021/11/12 07:10:39;;;;;;;7.80;5.10;;;;;;;18.87;42.62;101814.13;5092895;28;20127;-66
2021/11/12 07:13:11;;;;;;;7.53;5.22;;;;;;;18.89;41.49;101806.94;5091805;28;20028;-65
2021/11/12 07:15:37;;;;;;;8.05;5.40;;;;;;;18.87;40.77;101802.69;5092600;28;20024;-66
2021/11/12 07:18:02;;;;;;;7.25;5.32;;;;;;;18.90;41.54;101805.13;5092545;28;20024;-64
2021/11/12 07:20:28;;;;;;;7.47;5.22;;;;;;;18.93;41.74;101807.56;5092017;28;20406;-62
2021/11/12 07:22:54;;;;;;;8.90;5.20;;;;;;;18.95;41.56;101808.31;5092701;28;20031;-64
2021/11/12 07:25:19;;;;;;;6.80;4.95;;;;;;;18.98;41.77;101806.28;5092365;28;20016;-62
2021/11/12 07:27:45;;;;;;;7.93;5.57;;;;;;;18.99;41.81;101797.44;5091772;28;20024;-64
2021/11/12 07:30:14;;;;;;;10.10;5.50;;;;;;;19.03;40.90;101795.41;5092092;28;20471;-69
2021/11/12 07:32:42;;;;;;;8.23;5.97;;;;;;;19.02;39.64;101791.91;5093066;28;20106;-65
2021/11/12 07:35:08;;;;;;;7.43;5.35;;;;;;;19.02;41.00;101785.78;5091409;28;20024;-63
2021/11/12 07:37:34;;;;;;;8.73;5.10;;;;;;;19.03;41.22;101784.84;5092749;28;20036;-66
2021/11/12 07:40:01;;;;;;;8.00;4.85;;;;;;;19.07;41.69;101782.81;5092367;28;20111;-62
2021/11/12 07:42:39;;;;;;;7.53;4.60;;;;;;;19.09;41.79;101773.84;5091598;28;20024;-66
2021/11/12 07:47:31;;;;;;;8.02;5.18;;;;;;;19.13;41.39;101764.72;5092555;28;20055;-63
2021/11/12 07:49:58;;;;;;;8.43;5.45;;;;;;;19.14;40.95;101766.44;5091467;28;20093;-64
2021/11/12 07:52:30;;;;;;;8.00;5.13;;;;;;;19.18;41.58;101767.03;5092190;28;20036;-64
2021/11/12 07:54:58;;;;;;;7.82;4.80;;;;;;;19.19;41.60;101750.25;5091710;28;20136;-63
2021/11/12 07:57:23;;;;;;;8.23;5.28;;;;;;;19.21;41.66;101751.81;5092548;28;20103;-62
2021/11/12 07:59:52;;;;;;;7.75;4.53;;;;;;;19.24;41.51;101752.56;5092357;28;20050;-64
2021/11/12 08:02:17;;;;;;;7.57;4.97;;;;;;;19.25;41.44;101754.22;5091365;28;20101;-66
2021/11/12 08:05:00;;;;;;;7.43;4.90;;;;;;;19.25;41.24;101764.81;5092430;28;20024;-63
2021/11/12 08:07:31;;;;;;;7.65;5.05;;;;;;;19.26;41.30;101761.22;5091834;28;20048;-63
2021/11/12 08:09:59;;;;;;;7.28;5.13;;;;;;;19.27;41.49;101750.53;5091312;28;20027;-64
2021/11/12 08:12:28;;;;;;;8.85;5.40;;;;;;;19.26;41.30;101745.34;5091957;28;20044;-64
2021/11/12 08:15:10;;;;;;;7.25;4.72;;;;;;;19.28;41.56;101749.59;5092147;28;20085;-64
2021/11/12 08:17:47;;;;;;;7.65;4.85;;;;;;;19.28;41.45;101746.09;5091313;28;20102;-65
2021/11/12 08:22:44;;;;;;;7.82;4.70;;;;;;;19.34;41.25;101751.78;5096738;28;20123;-67
2021/11/12 08:25:18;;;;;;;7.93;5.03;;;;;;;19.40;40.75;101783.03;5094833;28;20460;-72
2021/11/12 08:33:06;;;;;;;11.77;7.38;;;;;;;19.48;39.04;101766.63;5096524;28;20036;-70
2021/11/12 08:38:12;;;;;;;9.13;5.50;;;;;;;19.51;39.96;101757.66;5098291;28;20064;-69
2021/11/12 08:48:20;;;;;;;6.50;4.55;;;;;;;19.64;40.03;101715.28;5095401;28;20031;-69
2021/11/12 08:50:46;;;;;;;9.43;5.18;;;;;;;19.61;39.97;101713.69;5096402;28;20028;-69
2021/11/12 08:53:12;;;;;;;7.68;4.68;;;;;;;19.57;40.10;101704.31;5095780;28;20085;-69
2021/11/12 08:55:42;;;;;;;6.68;4.80;;;;;;;19.54;40.04;101708.03;5096983;28;20035;-68
2021/11/12 08:58:13;;;;;;;8.85;4.60;;;;;;;19.51;40.01;101716.19;5094856;28;20145;-68
2021/11/12 09:00:40;;;;;;;7.38;5.10;;;;;;;19.47;40.10;101714.75;5096117;28;20020;-68
2021/11/12 09:03:07;;;;;;;7.65;4.45;;;;;;;19.45;40.27;101715.78;5095157;28;20098;-68
2021/11/12 09:05:33;;;;;;;7.57;4.85;;;;;;;19.41;40.18;101725.75;5094795;28;20046;-69
2021/11/12 09:07:58;;;;;;;7.47;4.93;;;;;;;19.38;40.22;101710.94;5094947;28;20028;-68
2021/11/12 09:10:26;;;;;;;6.45;4.65;;;;;;;19.35;40.15;101690.03;5095277;28;20058;-69
2021/11/12 09:12:59;;;;;;;7.20;4.38;;;;;;;19.34;40.62;101685.72;5094695;28;20395;-68
2021/11/12 09:15:29;;;;;;;6.80;5.20;;;;;;;19.31;39.67;101687.72;5095183;28;20456;-69
2021/11/12 09:17:56;;;;;;;6.93;4.80;;;;;;;19.28;40.22;101691.44;5095154;28;20020;-72
2021/11/12 09:20:22;;;;;;;8.45;5.47;;;;;;;19.26;39.17;101698.63;5094324;28;20085;-74
2021/11/12 09:22:47;;;;;;;8.98;5.72;;;;;;;19.22;39.89;101699.81;5095293;28;20028;-74
2021/11/12 09:25:14;;;;;;;9.13;5.57;;;;;;;19.23;40.28;101696.19;5095417;28;20026;-75
2021/11/12 09:27:39;;;;;;;7.43;5.07;;;;;;;19.21;40.44;101693.66;5094374;28;20062;-74
2021/11/12 09:30:07;;;;;;;9.13;5.43;;;;;;;19.22;40.21;101681.31;5094641;28;20044;-75
2021/11/12 09:32:33;;;;;;;8.85;4.43;;;;;;;19.22;40.57;101673.41;5094907;28;20031;-76
2021/11/12 09:34:58;;;;;;;8.02;4.80;;;;;;;19.23;40.48;101669.78;5093846;28;20032;-76
2021/11/12 09:37:24;;;;;;;12.33;4.87;;;;;;;19.24;40.89;101671.47;5095163;28;20043;-76
2021/11/12 09:39:54;;;;;;;7.78;4.90;;;;;;;19.25;40.88;101656.44;5096533;28;20374;-72
2021/11/12 09:42:31;;;;;;;8.18;4.75;;;;;;;19.25;40.58;101648.53;5094538;28;20475;-71
2021/11/12 09:45:00;;;;;;;6.53;4.70;;;;;;;19.30;40.37;101665.75;5099307;28;20032;-78
2021/11/12 09:47:27;;;;;;;7.03;4.90;;;;;;;19.35;39.87;101671.53;5098262;28;20020;-77
2021/11/12 09:49:55;;;;;;;7.80;4.90;;;;;;;19.40;39.92;101673.84;5097375;28;20036;-74
2021/11/12 09:52:21;;;;;;;7.80;4.70;;;;;;;19.45;39.97;101681.44;5094888;28;20027;-72
2021/11/12 09:54:48;;;;;;;7.45;4.78;;;;;;;19.44;39.82;101677.94;5093835;28;20032;-72
2021/11/12 09:57:14;;;;;;;6.88;4.30;;;;;;;19.45;40.01;101668.22;5095267;28;20031;-75
2021/11/12 09:59:45;;;;;;;7.70;5.07;;;;;;;19.48;39.77;101673.28;5096366;28;20024;-72
2021/11/12 10:02:11;;;;;;;7.15;4.50;;;;;;;19.48;40.05;101676.75;5093373;28;20110;-76
2021/11/12 10:04:38;;;;;;;7.18;4.47;;;;;;;19.46;40.37;101654.88;5095332;28;20016;-74
2021/11/12 10:07:10;;;;;;;6.90;4.55;;;;;;;19.42;39.97;101632.25;5094581;28;20064;-75
2021/11/12 10:09:35;;;;;;;7.72;5.47;;;;;;;19.40;39.08;101634.19;5094160;28;20468;-72
2021/11/12 10:12:01;;;;;;;7.47;5.13;;;;;;;19.36;39.87;101630.94;5094773;28;20131;-70
2021/11/12 10:14:43;;;;;;;7.13;4.55;;;;;;;19.34;40.09;101626.72;5097490;28;20016;-74
2021/11/12 10:17:09;;;;;;;6.65;4.80;;;;;;;19.32;40.45;101628.63;5099204;28;20082;-73
2021/11/12 10:19:43;;;;;;;7.80;4.45;;;;;;;19.32;40.59;101621.53;5100389;28;20020;-75
2021/11/12 10:22:09;;;;;;;7.73;4.60;;;;;;;19.30;40.67;101615.53;5100760;28;20016;-77
2021/11/12 10:24:40;;;;;;;7.53;4.80;;;;;;;19.32;40.54;101613.59;5102154;28;20032;-75
2021/11/12 10:27:18;;;;;;;6.85;4.80;;;;;;;19.32;40.75;101605.69;5102002;28;20023;-76
2021/11/12 10:29:49;;;;;;;7.38;4.43;;;;;;;19.32;41.12;101595.09;5099548;28;20024;-74
2021/11/12 10:32:19;;;;;;;6.70;4.28;;;;;;;19.32;40.70;101589.00;5094270;28;20522;-75
2021/11/12 10:34:46;;;;;;;6.35;4.30;;;;;;;19.32;40.89;101584.53;5094023;28;20020;-77
2021/11/12 10:37:21;;;;;;;5.75;4.00;;;;;;;19.33;40.81;101591.53;5092840;28;20471;-78
2021/11/12 10:39:50;;;;;;;7.57;4.30;;;;;;;19.33;40.52;101578.31;5094341;28;20040;-77
2021/11/12 10:42:22;;;;;;;7.05;3.97;;;;;;;19.35;40.96;101580.84;5093855;28;20035;-73
2021/11/12 10:44:52;;;;;;;6.60;4.05;;;;;;;19.33;40.93;101565.09;5093133;28;20028;-71
2021/11/12 10:47:20;;;;;;;6.90;4.20;;;;;;;19.34;40.83;101571.22;5093237;28;20472;-71
2021/11/12 10:49:50;;;;;;;7.75;4.30;;;;;;;19.34;40.94;101572.06;5093594;28;20442;-71
2021/11/12 10:52:19;;;;;;;6.82;3.95;;;;;;;19.33;41.21;101558.97;5092608;28;20031;-71
2021/11/12 10:57:13;;;;;;;5.10;3.35;;;;;;;19.35;41.41;101554.41;5093932;28;20463;-69
2021/11/12 11:00:08;;;;;;;6.18;4.00;;;;;;;19.36;41.37;101564.03;5092568;28;20039;-70
2021/11/12 11:03:00;;;;;;;6.18;4.25;;;;;;;19.37;41.16;101566.53;5091212;28;20097;-72
2021/11/12 11:05:46;;;;;;;7.75;4.32;;;;;;;19.38;41.32;101559.47;5093184;28;20024;-72
2021/11/12 11:08:14;;;;;;;6.45;4.35;;;;;;;19.39;41.11;101569.06;5093523;28;20036;-73
2021/11/12 11:10:47;;;;;;;7.35;4.43;;;;;;;19.37;40.86;101563.03;5093410;28;20055;-76
2021/11/12 11:13:14;;;;;;;8.77;5.50;;;;;;;19.32;39.96;101547.53;5092796;28;20020;-74
2021/11/12 11:15:43;;;;;;;6.80;4.50;;;;;;;19.32;40.96;101549.34;5093713;28;20028;-71
2021/11/12 11:18:18;;;;;;;6.50;4.00;;;;;;;19.33;41.17;101546.59;5093561;28;20052;-75
2021/11/12 11:20:56;;;;;;;7.38;4.00;;;;;;;19.32;41.36;101552.81;5093290;28;20032;-73
2021/11/12 11:23:23;;;;;;;6.60;3.60;;;;;;;19.33;41.39;101540.47;5093643;28;20364;-74
2021/11/12 11:26:03;;;;;;;6.43;3.75;;;;;;;19.34;41.56;101539.50;5093499;28;20032;-77
2021/11/12 11:28:30;;;;;;;7.25;4.03;;;;;;;19.35;41.32;101541.19;5093826;28;20055;-68
2021/11/12 11:30:56;;;;;;;7.45;4.85;;;;;;;19.34;40.97;101535.06;5093597;28;20024;-74
2021/11/12 11:33:22;;;;;;;7.03;4.13;;;;;;;19.32;41.25;101529.03;5093049;28;20374;-77
2021/11/12 11:35:48;;;;;;;6.70;3.90;;;;;;;19.34;41.35;101513.06;5093891;28;20328;-76
2021/11/12 11:38:17;;;;;;;6.68;4.53;;;;;;;19.36;41.30;101519.09;5093227;28;20032;-75
2021/11/12 11:40:48;;;;;;;6.68;3.63;;;;;;;19.35;41.59;101507.66;5092798;28;20012;-76
2021/11/12 11:43:15;;;;;;;7.25;4.20;;;;;;;19.39;41.50;101508.25;5012402;28;20048;-76
2021/11/12 11:45:42;;;;;;;8.15;4.78;;;;;;;19.46;40.98;101503.38;5091691;28;20471;-74
2021/11/12 11:48:08;;;;;;;7.28;4.10;;;;;;;19.53;40.86;101502.75;5093327;28;20028;-77
2021/11/12 11:50:33;;;;;;;7.32;4.07;;;;;;;19.65;40.91;101498.34;5094040;28;20153;-75
2021/11/12 11:53:19;;;;;;;8.70;3.67;;;;;;;19.77;40.74;101493.91;5097224;28;20039;-75
2021/11/12 11:55:45;;;;;;;6.85;3.60;;;;;;;19.85;40.57;101486.25;5095420;28;20093;-76
2021/11/12 11:58:29;;;;;;;8.63;4.03;;;;;;;19.91;40.41;101474.31;5095140;28;20027;-76
2021/11/12 12:01:11;;;;;;;6.45;3.78;;;;;;;19.94;40.02;101482.84;5092550;28;20043;-77
2021/11/12 12:03:37;;;;;;;9.30;4.60;;;;;;;19.93;39.33;101473.25;5094051;28;20024;-75
2021/11/12 12:06:14;;;;;;;5.88;3.78;;;;;;;19.91;39.83;101469.88;5092917;28;20121;-75
2021/11/12 12:08:53;;;;;;;6.95;3.70;;;;;;;19.89;40.01;101461.22;5097629;28;20031;-72
2021/11/12 12:11:24;;;;;;;6.35;3.50;;;;;;;19.91;39.90;101448.72;5099765;28;20057;-74
2021/11/12 12:14:27;;;;;;;6.95;3.70;;;;;;;19.94;40.06;101445.00;5101954;28;20031;-78
2021/11/12 12:16:59;;;;;;;6.28;3.65;;;;;;;19.98;40.14;101435.00;5103191;28;20032;-77
2021/11/12 13:21:44;;;;;;;5.32;2.80;;;;;;;19.66;42.05;101369.59;5057132;28;20051;-78
2021/11/12 13:24:16;;;;;;;5.55;2.60;;;;;;;19.70;41.71;101371.06;5095334;28;20028;-74
2021/11/12 13:26:56;;;;;;;6.18;2.85;;;;;;;19.69;42.24;101366.72;5095091;28;20475;-75
2021/11/12 13:29:24;;;;;;;6.72;3.08;;;;;;;19.69;41.55;101361.44;5095647;28;20105;-75
2021/11/12 13:32:08;;;;;;;5.03;2.72;;;;;;;19.74;41.63;101361.91;5095281;28;20394;-75
2021/11/12 13:34:46;;;;;;;4.65;2.78;;;;;;;19.71;41.75;101348.91;5094618;28;20032;-75
2021/11/12 13:37:24;;;;;;;5.50;3.28;;;;;;;19.69;41.40;101353.50;5095104;28;20023;-77
2021/11/12 13:40:11;;;;;;;4.57;2.60;;;;;;;19.67;41.35;101344.84;5094412;28;20158;-76
2021/11/12 13:42:42;;;;;;;4.97;3.10;;;;;;;19.66;41.36;101335.22;5095144;28;20023;-77
2021/11/12 13:45:17;;;;;;;5.55;3.10;;;;;;;19.64;41.56;101337.16;5094588;28;20051;-76
2021/11/12 13:47:44;;;;;;;4.75;2.80;;;;;;;19.62;41.88;101325.88;5094164;28;20460;-76
2021/11/12 13:50:11;;;;;;;5.47;2.70;;;;;;;19.61;42.27;101319.75;5094872;28;20062;-76
2021/11/12 13:52:42;;;;;;;5.22;2.70;;;;;;;19.60;42.18;101331.28;5094761;28;20022;-75
2021/11/12 13:55:13;;;;;;;4.63;2.65;;;;;;;19.60;42.20;101330.44;5093572;28;20016;-75
2021/11/12 13:57:59;;;;;;;5.95;2.83;;;;;;;19.58;42.09;101322.63;5094768;28;20026;-77
2021/11/12 14:00:27;;;;;;;4.50;2.40;;;;;;;19.57;42.04;101319.16;5093911;28;20418;-76
2021/11/12 14:03:06;;;;;;;4.68;2.78;;;;;;;19.57;41.80;101310.38;5095690;28;20043;-77
2021/11/12 14:05:33;;;;;;;4.97;2.78;;;;;;;19.58;41.60;101298.84;5094378;28;20028;-73
2021/11/12 14:08:20;;;;;;;5.20;2.70;;;;;;;19.56;41.56;101308.69;5093200;28;20371;-71
2021/11/12 14:10:47;;;;;;;6.30;2.67;;;;;;;19.55;41.64;101310.50;5094178;28;20028;-72
2021/11/12 14:13:16;;;;;;;6.00;3.17;;;;;;;19.54;41.35;101298.25;5094058;28;20035;-73
2021/11/12 14:19:07;;;;;;;5.00;2.50;;;;;;;19.51;41.35;101287.91;5094961;28;20047;-72
2021/11/12 14:21:37;;;;;;;5.70;2.65;;;;;;;19.50;41.60;101283.59;5094765;28;20028;-71
2021/11/12 14:27:00;;;;;;;4.57;2.42;;;;;;;19.49;42.20;101278.44;5094907;28;20043;-72
2021/11/12 14:35:26;;;;;;;4.35;2.63;;;;;;;19.47;41.81;101246.84;5093650;28;20116;-70
2021/11/12 14:43:31;;;;;;;6.30;3.30;;;;;;;19.44;41.67;101241.81;5093032;28;20024;-73
2021/11/12 14:46:15;;;;;;;5.88;3.25;;;;;;;19.44;41.75;101233.00;5093648;28;20076;-71
2021/11/12 14:49:25;;;;;;;6.60;3.50;;;;;;;19.40;42.00;101230.63;5094542;28;20035;-78
2021/11/12 14:51:57;;;;;;;8.52;3.88;;;;;;;19.40;41.17;101245.66;5084684;28;20463;-73
2021/11/12 14:54:46;;;;;;;6.40;3.30;;;;;;;19.39;41.77;101246.59;5095106;28;20092;-73
2021/11/12 14:59:41;;;;;;;6.57;3.22;;;;;;;19.38;41.85;101242.28;5099719;28;20044;-74
2021/11/12 15:02:09;;;;;;;9.48;3.42;;;;;;;19.42;41.90;101241.06;5097756;28;20039;-76
2021/11/12 15:04:34;;;;;;;5.95;3.58;;;;;;;19.48;41.71;101247.69;5098962;28;20020;-77
2021/11/12 15:07:00;;;;;;;12.85;3.30;;;;;;;19.53;41.96;101237.56;5102075;28;20382;-77
2021/11/12 15:09:33;;;;;;;6.95;3.33;;;;;;;19.58;41.80;101230.09;5100158;28;20035;-74
2021/11/12 15:12:01;;;;;;;6.78;3.10;;;;;;;19.66;41.83;101226.81;5096900;28;20044;-74
2021/11/12 15:14:29;;;;;;;6.15;2.60;;;;;;;19.73;41.44;101239.44;5098209;28;20036;-71
2021/11/12 15:16:56;;;;;;;8.40;4.72;;;;;;;19.73;40.54;101214.78;5099965;28;20050;-80
2021/11/12 15:19:24;;;;;;;9.93;4.32;;;;;;;19.74;40.93;101222.59;5095924;28;20059;-74
2021/11/12 15:34:07;;;;;;;5.43;3.05;;;;;;;19.80;41.43;101189.53;5095620;28;20048;-76
2021/11/12 15:36:34;;;;;;;7.57;2.72;;;;;;;19.77;41.83;101179.22;5096260;28;20103;-73
2021/11/12 15:41:52;;;;;;;5.63;2.88;;;;;;;19.72;42.13;101176.91;5096547;28;20083;-74
2021/11/12 15:44:24;;;;;;;10.23;3.00;;;;;;;19.69;42.27;101166.63;5098094;28;20032;-75
2021/11/12 15:50:01;;;;;;;6.20;2.72;;;;;;;19.64;42.45;101166.13;5107272;28;20051;-74
2021/11/12 16:00:42;;;;;;;8.05;2.30;;;;;;;19.65;42.60;101161.72;5103807;28;20074;-74
2021/11/12 16:09:09;;;;;;;5.90;2.72;;;;;;;19.63;42.44;101148.63;5092650;28;20074;-73
2021/11/12 16:19:16;;;;;;;5.38;2.90;;;;;;;19.60;42.43;101169.16;5092202;28;20048;-75
2021/11/12 16:26:58;;;;;;;7.00;3.10;;;;;;;19.58;42.55;101140.22;5092723;28;20089;-73
2021/11/12 16:31:55;;;;;;;6.75;3.15;;;;;;;19.54;42.76;101134.34;5092156;28;20020;-72
2021/11/12 16:34:24;;;;;;;7.70;3.47;;;;;;;19.56;42.80;101140.34;5091456;28;20085;-74
2021/11/12 16:36:57;;;;;;;7.88;3.58;;;;;;;19.57;43.43;101141.19;5091200;28;20036;-77
2021/11/12 16:40:09;;;;;;;7.97;4.07;;;;;;;19.54;43.58;101144.09;5091804;28;20075;-77
2021/11/12 16:42:25;;;;;;;12.15;4.25;;;;;;;19.57;43.96;101157.06;5084739;28;20093;-75
2021/11/12 16:45:37;;;;;;;11.65;4.70;;;;;;;19.56;43.50;101158.00;5092648;28;20056;-74
2021/11/12 16:47:54;;;;;;;8.82;4.30;;;;;;;19.56;44.24;101163.28;5084978;28;20032;-74
2021/11/12 16:57:51;;;;;;;8.18;3.42;;;;;;;19.53;44.57;101156.44;5094873;28;20027;-70
2021/11/12 17:02:52;;;;;;;9.48;4.22;;;;;;;19.52;44.14;101156.59;5095432;28;20036;-68
2021/11/12 17:05:21;;;;;;;8.45;3.53;;;;;;;19.49;44.21;101152.41;5094494;28;20028;-70
2021/11/12 17:08:01;;;;;;;8.25;3.50;;;;;;;19.49;44.18;101141.81;5094967;28;20442;-75
2021/11/12 17:13:32;;;;;;;7.22;3.70;;;;;;;19.51;44.29;101139.06;5070779;28;20054;-73
2021/11/12 17:19:19;;;;;;;10.05;3.35;;;;;;;19.55;44.53;101145.75;5094815;28;20478;-72